sensor_id;sensor_type;location;lat;lon;timestamp;P1;durP1;ratioP1;P2;durP2;ratioP2
76850;SDS011;65824;43.726;20.692;2023-05-17T00:00:09;10.18;;;5.57;;
76850;SDS011;65824;43.726;20.692;2023-05-17T00:02:36;14.55;;;5.20;;
76850;SDS011;65824;43.726;20.692;2023-05-17T00:05:02;12.48;;;5.30;;
76850;SDS011;65824;43.726;20.692;2023-05-17T00:07:28;11.80;;;5.18;;
76850;SDS011;65824;43.726;20.692;2023-05-17T00:09:54;13.63;;;5.18;;
76850;SDS011;65824;43.726;20.692;2023-05-17T00:12:19;14.25;;;4.63;;
76850;SDS011;65824;43.726;20.692;2023-05-17T00:14:44;8.95;;;4.72;;
76850;SDS011;65824;43.726;20.692;2023-05-17T00:17:10;9.80;;;4.50;;
76850;SDS011;65824;43.726;20.692;2023-05-17T00:19:35;10.60;;;5.13;;
76850;SDS011;65824;43.726;20.692;2023-05-17T00:22:01;10.77;;;5.00;;
76850;SDS011;65824;43.726;20.692;2023-05-17T00:24:26;11.63;;;4.72;;
76850;SDS011;65824;43.726;20.692;2023-05-17T00:26:51;9.95;;;4.82;;
76850;SDS011;65824;43.726;20.692;2023-05-17T00:29:17;11.02;;;4.80;;
76850;SDS011;65824;43.726;20.692;2023-05-17T00:31:42;9.00;;;4.55;;
76850;SDS011;65824;43.726;20.692;2023-05-17T00:34:08;10.70;;;4.57;;
76850;SDS011;65824;43.726;20.692;2023-05-17T00:36:33;10.38;;;4.72;;
76850;SDS011;65824;43.726;20.692;2023-05-17T00:38:59;11.80;;;4.60;;
76850;SDS011;65824;43.726;20.692;2023-05-17T00:41:25;10.65;;;4.53;;
76850;SDS011;65824;43.726;20.692;2023-05-17T00:43:50;9.70;;;4.25;;
76850;SDS011;65824;43.726;20.692;2023-05-17T00:46:17;13.00;;;6.05;;
76850;SDS011;65824;43.726;20.692;2023-05-17T00:48:42;21.02;;;10.77;;
76850;SDS011;65824;43.726;20.692;2023-05-17T00:51:08;23.83;;;11.43;;
76850;SDS011;65824;43.726;20.692;2023-05-17T00:53:33;17.92;;;9.90;;
76850;SDS011;65824;43.726;20.692;2023-05-17T00:56:01;17.70;;;8.98;;
76850;SDS011;65824;43.726;20.692;2023-05-17T00:58:27;17.70;;;9.05;;
76850;SDS011;65824;43.726;20.692;2023-05-17T01:00:52;16.17;;;7.68;;
76850;SDS011;65824;43.726;20.692;2023-05-17T01:03:18;14.70;;;6.72;;
76850;SDS011;65824;43.726;20.692;2023-05-17T01:05:43;12.80;;;6.88;;
76850;SDS011;65824;43.726;20.692;2023-05-17T01:08:10;13.45;;;6.07;;
76850;SDS011;65824;43.726;20.692;2023-05-17T01:13:31;12.95;;;5.63;;
76850;SDS011;65824;43.726;20.692;2023-05-17T01:16:15;11.98;;;6.38;;
76850;SDS011;65824;43.726;20.692;2023-05-17T01:18:57;13.02;;;6.03;;
76850;SDS011;65824;43.726;20.692;2023-05-17T01:21:53;12.50;;;6.03;;
76850;SDS011;65824;43.726;20.692;2023-05-17T01:24:29;10.68;;;5.93;;
76850;SDS011;65824;43.726;20.692;2023-05-17T01:26:59;12.15;;;6.00;;
76850;SDS011;65824;43.726;20.692;2023-05-17T01:29:25;11.05;;;5.63;;
76850;SDS011;65824;43.726;20.692;2023-05-17T01:31:53;13.95;;;5.80;;
76850;SDS011;65824;43.726;20.692;2023-05-17T01:34:27;10.23;;;5.40;;
76850;SDS011;65824;43.726;20.692;2023-05-17T01:36:53;11.85;;;5.75;;
76850;SDS011;65824;43.726;20.692;2023-05-17T01:39:19;13.18;;;5.50;;
76850;SDS011;65824;43.726;20.692;2023-05-17T01:41:56;11.48;;;6.30;;
76850;SDS011;65824;43.726;20.692;2023-05-17T01:44:32;12.45;;;5.85;;
76850;SDS011;65824;43.726;20.692;2023-05-17T01:50:28;12.55;;;6.05;;
76850;SDS011;65824;43.726;20.692;2023-05-17T01:52:58;15.32;;;6.10;;
76850;SDS011;65824;43.726;20.692;2023-05-17T01:55:41;14.07;;;6.68;;
76850;SDS011;65824;43.726;20.692;2023-05-17T01:58:07;10.18;;;5.90;;
76850;SDS011;65824;43.726;20.692;2023-05-17T02:00:34;10.80;;;6.10;;
76850;SDS011;65824;43.726;20.692;2023-05-17T02:03:00;14.20;;;6.55;;
76850;SDS011;65824;43.726;20.692;2023-05-17T02:05:26;11.30;;;6.13;;
76850;SDS011;65824;43.726;20.692;2023-05-17T02:07:51;13.43;;;6.55;;
76850;SDS011;65824;43.726;20.692;2023-05-17T02:10:17;12.95;;;7.40;;
76850;SDS011;65824;43.726;20.692;2023-05-17T02:12:42;13.10;;;6.93;;
76850;SDS011;65824;43.726;20.692;2023-05-17T02:15:09;13.38;;;6.63;;
76850;SDS011;65824;43.726;20.692;2023-05-17T02:17:36;12.90;;;6.85;;
76850;SDS011;65824;43.726;20.692;2023-05-17T02:20:03;12.80;;;6.13;;
76850;SDS011;65824;43.726;20.692;2023-05-17T02:22:30;12.40;;;5.78;;
76850;SDS011;65824;43.726;20.692;2023-05-17T02:24:57;12.75;;;6.00;;
76850;SDS011;65824;43.726;20.692;2023-05-17T02:27:25;15.40;;;6.72;;
76850;SDS011;65824;43.726;20.692;2023-05-17T02:29:50;12.45;;;6.35;;
76850;SDS011;65824;43.726;20.692;2023-05-17T02:32:16;13.75;;;6.80;;
76850;SDS011;65824;43.726;20.692;2023-05-17T02:34:43;17.50;;;7.03;;
76850;SDS011;65824;43.726;20.692;2023-05-17T02:37:08;12.10;;;7.20;;
76850;SDS011;65824;43.726;20.692;2023-05-17T02:39:34;15.60;;;7.00;;
76850;SDS011;65824;43.726;20.692;2023-05-17T02:41:59;11.95;;;7.40;;
76850;SDS011;65824;43.726;20.692;2023-05-17T02:44:25;19.67;;;10.35;;
76850;SDS011;65824;43.726;20.692;2023-05-17T02:46:50;19.20;;;10.43;;
76850;SDS011;65824;43.726;20.692;2023-05-17T02:49:16;16.48;;;9.63;;
76850;SDS011;65824;43.726;20.692;2023-05-17T02:51:45;15.82;;;8.77;;
76850;SDS011;65824;43.726;20.692;2023-05-17T02:54:10;20.20;;;7.25;;
76850;SDS011;65824;43.726;20.692;2023-05-17T02:56:36;14.00;;;6.38;;
76850;SDS011;65824;43.726;20.692;2023-05-17T02:59:01;10.80;;;5.18;;
76850;SDS011;65824;43.726;20.692;2023-05-17T03:01:27;14.30;;;6.30;;
76850;SDS011;65824;43.726;20.692;2023-05-17T03:03:52;12.70;;;6.68;;
76850;SDS011;65824;43.726;20.692;2023-05-17T03:06:18;12.40;;;6.80;;
76850;SDS011;65824;43.726;20.692;2023-05-17T03:08:43;10.60;;;6.15;;
76850;SDS011;65824;43.726;20.692;2023-05-17T03:11:09;14.63;;;6.97;;
76850;SDS011;65824;43.726;20.692;2023-05-17T03:13:34;13.52;;;7.40;;
76850;SDS011;65824;43.726;20.692;2023-05-17T03:16:00;13.80;;;6.82;;
76850;SDS011;65824;43.726;20.692;2023-05-17T03:18:25;12.93;;;7.28;;
76850;SDS011;65824;43.726;20.692;2023-05-17T03:20:51;14.30;;;7.25;;
76850;SDS011;65824;43.726;20.692;2023-05-17T03:23:16;12.43;;;7.15;;
76850;SDS011;65824;43.726;20.692;2023-05-17T03:25:42;14.43;;;6.88;;
76850;SDS011;65824;43.726;20.692;2023-05-17T03:28:07;15.07;;;6.57;;
76850;SDS011;65824;43.726;20.692;2023-05-17T03:30:32;11.90;;;7.05;;
76850;SDS011;65824;43.726;20.692;2023-05-17T03:33:01;13.18;;;6.15;;
76850;SDS011;65824;43.726;20.692;2023-05-17T03:35:26;15.25;;;6.55;;
76850;SDS011;65824;43.726;20.692;2023-05-17T03:37:52;16.10;;;6.85;;
76850;SDS011;65824;43.726;20.692;2023-05-17T03:40:17;12.35;;;6.70;;
76850;SDS011;65824;43.726;20.692;2023-05-17T03:42:43;13.73;;;7.07;;
76850;SDS011;65824;43.726;20.692;2023-05-17T03:45:09;13.02;;;6.70;;
76850;SDS011;65824;43.726;20.692;2023-05-17T03:47:35;10.45;;;5.45;;
76850;SDS011;65824;43.726;20.692;2023-05-17T03:50:01;11.63;;;5.25;;
76850;SDS011;65824;43.726;20.692;2023-05-17T03:52:26;10.10;;;5.18;;
76850;SDS011;65824;43.726;20.692;2023-05-17T03:54:52;12.57;;;5.25;;
76850;SDS011;65824;43.726;20.692;2023-05-17T03:57:17;12.77;;;5.55;;
76850;SDS011;65824;43.726;20.692;2023-05-17T03:59:45;12.30;;;5.63;;
76850;SDS011;65824;43.726;20.692;2023-05-17T04:02:11;12.90;;;6.00;;
76850;SDS011;65824;43.726;20.692;2023-05-17T04:04:36;10.82;;;5.10;;
76850;SDS011;65824;43.726;20.692;2023-05-17T04:07:03;9.35;;;4.80;;
76850;SDS011;65824;43.726;20.692;2023-05-17T04:09:29;12.60;;;5.40;;
76850;SDS011;65824;43.726;20.692;2023-05-17T04:11:55;11.20;;;5.25;;
76850;SDS011;65824;43.726;20.692;2023-05-17T04:14:21;10.05;;;5.05;;
76850;SDS011;65824;43.726;20.692;2023-05-17T04:16:47;11.45;;;4.93;;
76850;SDS011;65824;43.726;20.692;2023-05-17T04:19:12;8.85;;;5.57;;
76850;SDS011;65824;43.726;20.692;2023-05-17T04:21:38;11.02;;;5.60;;
76850;SDS011;65824;43.726;20.692;2023-05-17T04:24:03;11.75;;;5.25;;
76850;SDS011;65824;43.726;20.692;2023-05-17T04:26:30;11.18;;;5.40;;
76850;SDS011;65824;43.726;20.692;2023-05-17T04:28:56;13.50;;;5.03;;
76850;SDS011;65824;43.726;20.692;2023-05-17T04:31:22;14.20;;;4.95;;
76850;SDS011;65824;43.726;20.692;2023-05-17T04:33:51;10.15;;;4.80;;
76850;SDS011;65824;43.726;20.692;2023-05-17T04:36:17;14.48;;;5.32;;
76850;SDS011;65824;43.726;20.692;2023-05-17T04:38:43;9.27;;;4.50;;
76850;SDS011;65824;43.726;20.692;2023-05-17T04:41:08;9.30;;;5.30;;
76850;SDS011;65824;43.726;20.692;2023-05-17T04:43:33;10.35;;;6.22;;
76850;SDS011;65824;43.726;20.692;2023-05-17T04:45:59;12.80;;;7.30;;
76850;SDS011;65824;43.726;20.692;2023-05-17T04:48:25;10.75;;;6.65;;
76850;SDS011;65824;43.726;20.692;2023-05-17T04:50:52;12.73;;;6.45;;
76850;SDS011;65824;43.726;20.692;2023-05-17T04:53:18;11.75;;;7.88;;
76850;SDS011;65824;43.726;20.692;2023-05-17T04:55:44;13.73;;;7.65;;
76850;SDS011;65824;43.726;20.692;2023-05-17T04:58:12;16.17;;;7.05;;
76850;SDS011;65824;43.726;20.692;2023-05-17T05:00:39;13.30;;;7.05;;
76850;SDS011;65824;43.726;20.692;2023-05-17T05:03:05;17.67;;;7.07;;
76850;SDS011;65824;43.726;20.692;2023-05-17T05:05:31;11.23;;;6.25;;
76850;SDS011;65824;43.726;20.692;2023-05-17T05:07:56;11.07;;;6.55;;
76850;SDS011;65824;43.726;20.692;2023-05-17T05:10:22;12.35;;;6.70;;
76850;SDS011;65824;43.726;20.692;2023-05-17T05:12:48;11.95;;;6.00;;
76850;SDS011;65824;43.726;20.692;2023-05-17T05:15:13;10.45;;;6.20;;
76850;SDS011;65824;43.726;20.692;2023-05-17T05:17:42;12.15;;;6.82;;
76850;SDS011;65824;43.726;20.692;2023-05-17T05:20:08;13.23;;;6.57;;
76850;SDS011;65824;43.726;20.692;2023-05-17T05:22:34;10.88;;;5.75;;
76850;SDS011;65824;43.726;20.692;2023-05-17T05:25:00;12.05;;;6.82;;
76850;SDS011;65824;43.726;20.692;2023-05-17T05:27:25;10.75;;;6.88;;
76850;SDS011;65824;43.726;20.692;2023-05-17T05:29:53;12.02;;;6.55;;
76850;SDS011;65824;43.726;20.692;2023-05-17T05:32:19;14.75;;;6.47;;
76850;SDS011;65824;43.726;20.692;2023-05-17T05:34:44;14.02;;;6.53;;
76850;SDS011;65824;43.726;20.692;2023-05-17T05:37:09;12.93;;;6.60;;
76850;SDS011;65824;43.726;20.692;2023-05-17T05:39:35;12.43;;;6.28;;
76850;SDS011;65824;43.726;20.692;2023-05-17T05:42:03;10.48;;;5.93;;
76850;SDS011;65824;43.726;20.692;2023-05-17T05:44:30;11.60;;;5.55;;
76850;SDS011;65824;43.726;20.692;2023-05-17T05:46:55;16.10;;;6.07;;
76850;SDS011;65824;43.726;20.692;2023-05-17T05:49:21;11.70;;;5.93;;
76850;SDS011;65824;43.726;20.692;2023-05-17T05:51:46;11.27;;;6.50;;
76850;SDS011;65824;43.726;20.692;2023-05-17T05:54:12;10.80;;;5.18;;
76850;SDS011;65824;43.726;20.692;2023-05-17T05:56:38;12.52;;;5.70;;
76850;SDS011;65824;43.726;20.692;2023-05-17T05:59:04;11.68;;;5.70;;
76850;SDS011;65824;43.726;20.692;2023-05-17T06:01:30;11.18;;;5.07;;
76850;SDS011;65824;43.726;20.692;2023-05-17T06:03:55;9.07;;;4.60;;
76850;SDS011;65824;43.726;20.692;2023-05-17T06:06:22;11.75;;;4.90;;
76850;SDS011;65824;43.726;20.692;2023-05-17T06:08:51;12.75;;;4.95;;
76850;SDS011;65824;43.726;20.692;2023-05-17T06:11:18;11.13;;;5.00;;
76850;SDS011;65824;43.726;20.692;2023-05-17T06:13:45;11.73;;;5.43;;
76850;SDS011;65824;43.726;20.692;2023-05-17T06:16:11;18.30;;;6.60;;
76850;SDS011;65824;43.726;20.692;2023-05-17T06:18:37;11.13;;;5.38;;
76850;SDS011;65824;43.726;20.692;2023-05-17T06:21:04;11.80;;;5.15;;
76850;SDS011;65824;43.726;20.692;2023-05-17T06:23:29;10.82;;;5.05;;
76850;SDS011;65824;43.726;20.692;2023-05-17T06:25:55;14.20;;;5.65;;
76850;SDS011;65824;43.726;20.692;2023-05-17T06:28:20;13.32;;;5.10;;
76850;SDS011;65824;43.726;20.692;2023-05-17T06:30:46;11.20;;;5.13;;
76850;SDS011;65824;43.726;20.692;2023-05-17T06:33:11;11.35;;;5.10;;
76850;SDS011;65824;43.726;20.692;2023-05-17T06:35:38;13.68;;;5.45;;
76850;SDS011;65824;43.726;20.692;2023-05-17T06:38:04;11.73;;;5.28;;
76850;SDS011;65824;43.726;20.692;2023-05-17T06:40:29;14.10;;;7.40;;
76850;SDS011;65824;43.726;20.692;2023-05-17T06:42:55;15.50;;;5.70;;
76850;SDS011;65824;43.726;20.692;2023-05-17T06:45:20;11.98;;;5.05;;
76850;SDS011;65824;43.726;20.692;2023-05-17T06:47:46;10.70;;;4.78;;
76850;SDS011;65824;43.726;20.692;2023-05-17T06:50:14;22.10;;;6.20;;
76850;SDS011;65824;43.726;20.692;2023-05-17T06:52:43;11.88;;;4.63;;
76850;SDS011;65824;43.726;20.692;2023-05-17T06:55:11;10.60;;;4.60;;
76850;SDS011;65824;43.726;20.692;2023-05-17T06:57:39;11.70;;;4.85;;
76850;SDS011;65824;43.726;20.692;2023-05-17T07:00:05;8.65;;;4.32;;
76850;SDS011;65824;43.726;20.692;2023-05-17T07:02:36;11.05;;;5.07;;
76850;SDS011;65824;43.726;20.692;2023-05-17T07:05:03;10.23;;;4.50;;
76850;SDS011;65824;43.726;20.692;2023-05-17T07:07:31;12.07;;;5.07;;
76850;SDS011;65824;43.726;20.692;2023-05-17T07:09:57;14.85;;;5.03;;
76850;SDS011;65824;43.726;20.692;2023-05-17T07:12:22;11.82;;;4.70;;
76850;SDS011;65824;43.726;20.692;2023-05-17T07:14:48;9.73;;;4.60;;
76850;SDS011;65824;43.726;20.692;2023-05-17T07:17:15;9.45;;;4.80;;
76850;SDS011;65824;43.726;20.692;2023-05-17T07:19:40;10.70;;;4.47;;
76850;SDS011;65824;43.726;20.692;2023-05-17T07:22:08;10.73;;;4.60;;
76850;SDS011;65824;43.726;20.692;2023-05-17T07:24:34;28.98;;;6.25;;
76850;SDS011;65824;43.726;20.692;2023-05-17T07:27:01;14.45;;;4.72;;
76850;SDS011;65824;43.726;20.692;2023-05-17T07:29:26;17.08;;;5.65;;
76850;SDS011;65824;43.726;20.692;2023-05-17T07:31:53;15.35;;;5.63;;
76850;SDS011;65824;43.726;20.692;2023-05-17T07:34:19;12.13;;;4.75;;
76850;SDS011;65824;43.726;20.692;2023-05-17T07:36:45;8.50;;;5.13;;
76850;SDS011;65824;43.726;20.692;2023-05-17T07:39:10;9.38;;;4.15;;
76850;SDS011;65824;43.726;20.692;2023-05-17T07:41:37;12.50;;;4.63;;
76850;SDS011;65824;43.726;20.692;2023-05-17T07:44:03;9.95;;;4.28;;
76850;SDS011;65824;43.726;20.692;2023-05-17T07:46:29;10.20;;;3.95;;
76850;SDS011;65824;43.726;20.692;2023-05-17T07:48:55;9.25;;;3.47;;
76850;SDS011;65824;43.726;20.692;2023-05-17T07:51:20;13.20;;;4.38;;
76850;SDS011;65824;43.726;20.692;2023-05-17T07:53:46;12.68;;;4.00;;
76850;SDS011;65824;43.726;20.692;2023-05-17T07:56:13;9.10;;;3.45;;
76850;SDS011;65824;43.726;20.692;2023-05-17T07:58:40;14.18;;;4.10;;
76850;SDS011;65824;43.726;20.692;2023-05-17T08:01:05;9.38;;;3.60;;
76850;SDS011;65824;43.726;20.692;2023-05-17T08:03:30;11.38;;;4.00;;
76850;SDS011;65824;43.726;20.692;2023-05-17T08:05:56;9.00;;;3.45;;
76850;SDS011;65824;43.726;20.692;2023-05-17T08:08:21;8.98;;;2.90;;
76850;SDS011;65824;43.726;20.692;2023-05-17T08:10:48;11.38;;;3.03;;
76850;SDS011;65824;43.726;20.692;2023-05-17T08:13:14;10.82;;;3.28;;
76850;SDS011;65824;43.726;20.692;2023-05-17T08:15:40;4.22;;;2.50;;
76850;SDS011;65824;43.726;20.692;2023-05-17T08:18:05;8.50;;;2.40;;
76850;SDS011;65824;43.726;20.692;2023-05-17T08:20:31;9.07;;;3.80;;
76850;SDS011;65824;43.726;20.692;2023-05-17T08:22:56;9.32;;;2.90;;
76850;SDS011;65824;43.726;20.692;2023-05-17T08:25:23;14.80;;;3.70;;
76850;SDS011;65824;43.726;20.692;2023-05-17T08:27:49;9.93;;;3.15;;
76850;SDS011;65824;43.726;20.692;2023-05-17T08:30:15;9.48;;;3.15;;
76850;SDS011;65824;43.726;20.692;2023-05-17T08:32:41;10.70;;;3.58;;
76850;SDS011;65824;43.726;20.692;2023-05-17T08:35:07;8.85;;;3.35;;
76850;SDS011;65824;43.726;20.692;2023-05-17T08:37:32;10.27;;;3.08;;
76850;SDS011;65824;43.726;20.692;2023-05-17T08:39:58;8.25;;;2.92;;
76850;SDS011;65824;43.726;20.692;2023-05-17T08:42:23;9.38;;;3.13;;
76850;SDS011;65824;43.726;20.692;2023-05-17T08:44:49;7.07;;;2.80;;
76850;SDS011;65824;43.726;20.692;2023-05-17T08:47:16;10.77;;;2.90;;
76850;SDS011;65824;43.726;20.692;2023-05-17T08:49:50;6.88;;;2.90;;
76850;SDS011;65824;43.726;20.692;2023-05-17T08:52:18;12.65;;;4.18;;
76850;SDS011;65824;43.726;20.692;2023-05-17T08:54:44;8.98;;;3.30;;
76850;SDS011;65824;43.726;20.692;2023-05-17T08:57:09;9.63;;;3.10;;
76850;SDS011;65824;43.726;20.692;2023-05-17T08:59:36;9.77;;;3.33;;
76850;SDS011;65824;43.726;20.692;2023-05-17T09:02:02;14.60;;;4.10;;
76850;SDS011;65824;43.726;20.692;2023-05-17T09:04:31;9.18;;;3.35;;
76850;SDS011;65824;43.726;20.692;2023-05-17T09:07:00;12.20;;;3.08;;
76850;SDS011;65824;43.726;20.692;2023-05-17T09:09:26;8.68;;;3.00;;
76850;SDS011;65824;43.726;20.692;2023-05-17T09:11:53;9.27;;;3.17;;
76850;SDS011;65824;43.726;20.692;2023-05-17T09:14:20;7.85;;;3.20;;
76850;SDS011;65824;43.726;20.692;2023-05-17T09:16:46;8.57;;;3.13;;
76850;SDS011;65824;43.726;20.692;2023-05-17T09:19:13;9.18;;;3.92;;
76850;SDS011;65824;43.726;20.692;2023-05-17T09:21:45;9.88;;;3.90;;
76850;SDS011;65824;43.726;20.692;2023-05-17T09:24:11;10.15;;;4.03;;
76850;SDS011;65824;43.726;20.692;2023-05-17T09:26:38;8.25;;;3.33;;
76850;SDS011;65824;43.726;20.692;2023-05-17T09:29:08;7.43;;;2.92;;
76850;SDS011;65824;43.726;20.692;2023-05-17T09:31:40;11.13;;;3.88;;
76850;SDS011;65824;43.726;20.692;2023-05-17T09:34:07;10.70;;;4.03;;
76850;SDS011;65824;43.726;20.692;2023-05-17T09:36:34;8.85;;;3.58;;
76850;SDS011;65824;43.726;20.692;2023-05-17T09:39:03;9.45;;;3.80;;
76850;SDS011;65824;43.726;20.692;2023-05-17T09:41:39;10.30;;;3.40;;
76850;SDS011;65824;43.726;20.692;2023-05-17T09:44:09;10.73;;;3.63;;
76850;SDS011;65824;43.726;20.692;2023-05-17T09:46:43;11.07;;;3.55;;
76850;SDS011;65824;43.726;20.692;2023-05-17T09:49:11;9.48;;;3.33;;
76850;SDS011;65824;43.726;20.692;2023-05-17T09:51:41;9.15;;;3.80;;
76850;SDS011;65824;43.726;20.692;2023-05-17T09:54:08;7.45;;;3.60;;
76850;SDS011;65824;43.726;20.692;2023-05-17T09:56:35;12.20;;;3.80;;
76850;SDS011;65824;43.726;20.692;2023-05-17T09:59:01;10.88;;;4.38;;
76850;SDS011;65824;43.726;20.692;2023-05-17T10:01:28;9.07;;;3.58;;
76850;SDS011;65824;43.726;20.692;2023-05-17T10:04:00;14.05;;;4.20;;
76850;SDS011;65824;43.726;20.692;2023-05-17T10:06:27;12.50;;;4.03;;
76850;SDS011;65824;43.726;20.692;2023-05-17T10:08:54;10.30;;;3.67;;
76850;SDS011;65824;43.726;20.692;2023-05-17T10:11:21;11.48;;;3.92;;
76850;SDS011;65824;43.726;20.692;2023-05-17T10:16:19;9.77;;;4.28;;
76850;SDS011;65824;43.726;20.692;2023-05-17T10:18:47;10.38;;;4.40;;
76850;SDS011;65824;43.726;20.692;2023-05-17T10:21:13;11.27;;;3.83;;
76850;SDS011;65824;43.726;20.692;2023-05-17T10:23:39;11.88;;;4.20;;
76850;SDS011;65824;43.726;20.692;2023-05-17T10:26:06;9.15;;;4.00;;
76850;SDS011;65824;43.726;20.692;2023-05-17T10:28:32;10.32;;;4.13;;
76850;SDS011;65824;43.726;20.692;2023-05-17T10:31:00;10.00;;;3.92;;
76850;SDS011;65824;43.726;20.692;2023-05-17T10:33:27;11.80;;;3.72;;
76850;SDS011;65824;43.726;20.692;2023-05-17T10:36:16;9.90;;;4.13;;
76850;SDS011;65824;43.726;20.692;2023-05-17T10:38:42;10.63;;;4.40;;
76850;SDS011;65824;43.726;20.692;2023-05-17T10:41:12;9.70;;;4.60;;
76850;SDS011;65824;43.726;20.692;2023-05-17T10:43:38;10.18;;;4.63;;
76850;SDS011;65824;43.726;20.692;2023-05-17T10:46:10;10.15;;;4.78;;
76850;SDS011;65824;43.726;20.692;2023-05-17T10:48:39;13.90;;;5.43;;
76850;SDS011;65824;43.726;20.692;2023-05-17T10:51:06;9.85;;;5.45;;
76850;SDS011;65824;43.726;20.692;2023-05-17T10:53:37;12.52;;;6.03;;
76850;SDS011;65824;43.726;20.692;2023-05-17T10:59:15;11.15;;;4.90;;
76850;SDS011;65824;43.726;20.692;2023-05-17T11:01:57;10.35;;;4.78;;
76850;SDS011;65824;43.726;20.692;2023-05-17T11:04:40;11.93;;;5.28;;
76850;SDS011;65824;43.726;20.692;2023-05-17T11:07:21;10.80;;;5.30;;
76850;SDS011;65824;43.726;20.692;2023-05-17T11:12:51;10.70;;;5.22;;
76850;SDS011;65824;43.726;20.692;2023-05-17T11:15:22;14.32;;;6.68;;
76850;SDS011;65824;43.726;20.692;2023-05-17T11:17:50;12.27;;;5.30;;
76850;SDS011;65824;43.726;20.692;2023-05-17T11:23:06;14.38;;;5.28;;
76850;SDS011;65824;43.726;20.692;2023-05-17T11:25:37;16.70;;;5.72;;
76850;SDS011;65824;43.726;20.692;2023-05-17T11:31:01;10.95;;;4.70;;
76850;SDS011;65824;43.726;20.692;2023-05-17T11:33:46;10.60;;;5.43;;
76850;SDS011;65824;43.726;20.692;2023-05-17T11:36:21;13.63;;;5.43;;
76850;SDS011;65824;43.726;20.692;2023-05-17T11:39:11;13.65;;;5.07;;
76850;SDS011;65824;43.726;20.692;2023-05-17T11:41:47;13.00;;;5.22;;
76850;SDS011;65824;43.726;20.692;2023-05-17T11:44:32;11.48;;;5.75;;
76850;SDS011;65824;43.726;20.692;2023-05-17T11:49:38;11.00;;;5.82;;
76850;SDS011;65824;43.726;20.692;2023-05-17T11:52:04;10.57;;;6.03;;
76850;SDS011;65824;43.726;20.692;2023-05-17T11:54:32;11.93;;;5.57;;
76850;SDS011;65824;43.726;20.692;2023-05-17T11:57:01;9.15;;;4.90;;
76850;SDS011;65824;43.726;20.692;2023-05-17T11:59:27;10.75;;;3.85;;
76850;SDS011;65824;43.726;20.692;2023-05-17T12:02:27;8.38;;;4.10;;
76850;SDS011;65824;43.726;20.692;2023-05-17T12:04:53;9.55;;;3.50;;
76850;SDS011;65824;43.726;20.692;2023-05-17T12:07:19;7.25;;;3.40;;
76850;SDS011;65824;43.726;20.692;2023-05-17T12:09:45;8.15;;;3.60;;
76850;SDS011;65824;43.726;20.692;2023-05-17T12:12:12;5.32;;;2.22;;
76850;SDS011;65824;43.726;20.692;2023-05-17T12:14:38;6.72;;;2.65;;
76850;SDS011;65824;43.726;20.692;2023-05-17T12:17:08;7.03;;;1.90;;
76850;SDS011;65824;43.726;20.692;2023-05-17T12:19:37;5.30;;;1.90;;
76850;SDS011;65824;43.726;20.692;2023-05-17T12:24:36;7.18;;;2.40;;
76850;SDS011;65824;43.726;20.692;2023-05-17T12:27:08;6.30;;;3.00;;
76850;SDS011;65824;43.726;20.692;2023-05-17T12:29:33;5.85;;;2.33;;
76850;SDS011;65824;43.726;20.692;2023-05-17T12:31:59;6.57;;;2.35;;
76850;SDS011;65824;43.726;20.692;2023-05-17T12:34:26;8.77;;;2.97;;
76850;SDS011;65824;43.726;20.692;2023-05-17T12:36:53;6.53;;;2.60;;
76850;SDS011;65824;43.726;20.692;2023-05-17T12:39:19;5.07;;;1.63;;
76850;SDS011;65824;43.726;20.692;2023-05-17T12:41:51;6.13;;;2.20;;
76850;SDS011;65824;43.726;20.692;2023-05-17T12:44:18;12.98;;;2.90;;
76850;SDS011;65824;43.726;20.692;2023-05-17T12:46:44;5.78;;;2.90;;
76850;SDS011;65824;43.726;20.692;2023-05-17T12:49:14;8.43;;;3.35;;
76850;SDS011;65824;43.726;20.692;2023-05-17T12:51:42;8.15;;;2.80;;
76850;SDS011;65824;43.726;20.692;2023-05-17T12:54:13;7.30;;;2.72;;
76850;SDS011;65824;43.726;20.692;2023-05-17T12:56:40;8.07;;;2.63;;
76850;SDS011;65824;43.726;20.692;2023-05-17T12:59:12;6.47;;;3.10;;
76850;SDS011;65824;43.726;20.692;2023-05-17T13:04:06;9.07;;;4.78;;
76850;SDS011;65824;43.726;20.692;2023-05-17T13:06:48;10.23;;;4.93;;
76850;SDS011;65824;43.726;20.692;2023-05-17T13:09:15;11.13;;;4.35;;
76850;SDS011;65824;43.726;20.692;2023-05-17T13:11:42;6.80;;;3.40;;
76850;SDS011;65824;43.726;20.692;2023-05-17T13:17:08;8.10;;;4.15;;
76850;SDS011;65824;43.726;20.692;2023-05-17T13:19:34;7.13;;;3.95;;
76850;SDS011;65824;43.726;20.692;2023-05-17T13:22:02;9.48;;;4.38;;
76850;SDS011;65824;43.726;20.692;2023-05-17T13:24:30;8.77;;;3.70;;
76850;SDS011;65824;43.726;20.692;2023-05-17T13:26:58;9.65;;;4.00;;
76850;SDS011;65824;43.726;20.692;2023-05-17T13:29:24;10.20;;;4.50;;
76850;SDS011;65824;43.726;20.692;2023-05-17T13:31:50;9.32;;;3.85;;
76850;SDS011;65824;43.726;20.692;2023-05-17T13:34:15;9.32;;;3.97;;
76850;SDS011;65824;43.726;20.692;2023-05-17T13:36:45;8.10;;;3.55;;
76850;SDS011;65824;43.726;20.692;2023-05-17T13:39:11;9.00;;;3.30;;
76850;SDS011;65824;43.726;20.692;2023-05-17T13:41:38;8.52;;;3.25;;
76850;SDS011;65824;43.726;20.692;2023-05-17T13:44:13;8.75;;;3.75;;
76850;SDS011;65824;43.726;20.692;2023-05-17T13:46:40;10.80;;;4.10;;
76850;SDS011;65824;43.726;20.692;2023-05-17T13:49:05;6.05;;;2.47;;
76850;SDS011;65824;43.726;20.692;2023-05-17T13:51:32;9.80;;;3.20;;
76850;SDS011;65824;43.726;20.692;2023-05-17T13:54:00;11.60;;;3.92;;
76850;SDS011;65824;43.726;20.692;2023-05-17T13:56:25;5.85;;;2.70;;
76850;SDS011;65824;43.726;20.692;2023-05-17T13:58:51;8.32;;;2.70;;
76850;SDS011;65824;43.726;20.692;2023-05-17T14:01:17;7.65;;;3.20;;
76850;SDS011;65824;43.726;20.692;2023-05-17T14:03:43;12.77;;;4.50;;
76850;SDS011;65824;43.726;20.692;2023-05-17T14:06:09;10.75;;;4.28;;
76850;SDS011;65824;43.726;20.692;2023-05-17T14:08:34;8.77;;;3.80;;
76850;SDS011;65824;43.726;20.692;2023-05-17T14:11:01;11.13;;;3.80;;
76850;SDS011;65824;43.726;20.692;2023-05-17T14:13:27;10.55;;;4.13;;
76850;SDS011;65824;43.726;20.692;2023-05-17T14:15:54;8.70;;;3.30;;
76850;SDS011;65824;43.726;20.692;2023-05-17T14:18:21;8.77;;;4.05;;
76850;SDS011;65824;43.726;20.692;2023-05-17T14:20:50;8.70;;;3.50;;
76850;SDS011;65824;43.726;20.692;2023-05-17T14:23:18;9.00;;;3.78;;
76850;SDS011;65824;43.726;20.692;2023-05-17T14:25:45;12.45;;;4.10;;
76850;SDS011;65824;43.726;20.692;2023-05-17T14:28:13;9.13;;;3.80;;
76850;SDS011;65824;43.726;20.692;2023-05-17T14:30:40;10.20;;;3.63;;
76850;SDS011;65824;43.726;20.692;2023-05-17T14:33:09;6.43;;;3.13;;
76850;SDS011;65824;43.726;20.692;2023-05-17T14:35:35;8.63;;;3.42;;
76850;SDS011;65824;43.726;20.692;2023-05-17T14:38:01;7.68;;;3.60;;
76850;SDS011;65824;43.726;20.692;2023-05-17T14:40:29;7.97;;;4.50;;
76850;SDS011;65824;43.726;20.692;2023-05-17T14:42:55;11.40;;;5.07;;
76850;SDS011;65824;43.726;20.692;2023-05-17T14:45:21;9.43;;;4.00;;
76850;SDS011;65824;43.726;20.692;2023-05-17T14:47:47;8.75;;;4.50;;
76850;SDS011;65824;43.726;20.692;2023-05-17T14:50:13;9.00;;;4.53;;
76850;SDS011;65824;43.726;20.692;2023-05-17T14:52:38;8.98;;;4.25;;
76850;SDS011;65824;43.726;20.692;2023-05-17T14:55:04;8.57;;;3.60;;
76850;SDS011;65824;43.726;20.692;2023-05-17T14:57:32;9.45;;;4.07;;